Terminal Aerodrome Forecast
Issued by NWS Cleveland, OH

Home | Current Version | Previous Version | Graphics & Text | Print | Product List | Glossary On
Versions: 1 2 3 4 5 6 7 8 9 10 11 12 13 14 15 16 17 18 19 20
386
FTUS41 KCLE 280408 AAA
TAFMFD
TAF AMD
KMFD 280408Z 2804/2824 VRB03KT P6SM VCSH SCT050 OVC120
     FM280800 06005KT 4SM -RA BR SCT006 OVC015
      TEMPO 2810/2814 1SM -RA BR OVC006
     FM281600 36010KT P6SM BKN008 OVC015=

USA.gov is the U.S. government's official web portal to all federal, state and local government web resources and services.